Celina Star — D5GB9 — position and weather

sailwx.info

Track history (hours):
 
Tides and Currents Weather Stations Pressure Air Temp Water Temp Dewpoint Dewpoint Depression Visibility Wind Speed Wind Dir Waves Ship Positions

Celina Star

Last reported at 2017-Nov-23 13:21 UTC. Time now 2017-Nov-24 07:20 UTC.
Position N 35°49' W 006°10'.

Length 243 m; draft 8.1 m.

Type: Ship. MMSI: 636016415.

Date/timePositionNaut miles runAvg speedWind from/ knotsBaromVisibWave heightAir tempDewpointWater temp
2017-Nov-23 13:21N 35°49' W 006°10'2 4.7
2017-Nov-23 13:00N 35°51' W 006°09'0 0.5
2017-Nov-23 12:31N 35°51' W 006°09'0 0.6
2017-Nov-23 12:00N 35°50' W 006°09'0 0.7
2017-Nov-23 11:30N 35°50' W 006°09'0 0.8
2017-Nov-23 10:58N 35°50' W 006°09'0 1.0
2017-Nov-23 10:30N 35°49' W 006°10'0 0.9
2017-Nov-23 10:00N 35°49' W 006°10'7 5.1
2017-Nov-23 08:37N 35°56' W 006°13'314.2
2017-Nov-23 08:23N 35°59' W 006°13'6 0.8
2017-Nov-23 01:28N 36°04' W 006°12'0 0.0
2017-Nov-23 00:58N 36°04' W 006°12'0 0.0
2017-Nov-22 23:16N 36°04' W 006°12'0 0.0
2017-Nov-22 22:55N 36°04' W 006°12'  
2017-Nov-19 12:14N 27°55' W 013°35'  
Track history (hours):
 
Tides and Currents Weather Stations Pressure Air Temp Water Temp Dewpoint Dewpoint Depression Visibility Wind Speed Wind Dir Waves Ship Positions

Celina Star

Last reported at 2017-Nov-23 13:21 UTC. Time now 2017-Nov-24 07:20 UTC.
Position N 35°49' W 006°10'.

Length 243 m; draft 8.1 m.

Type: Ship. MMSI: 636016415.

Date/timePositionNaut miles runAvg speedWind from/ knotsBaromVisibWave heightAir tempDewpointWater temp
2017-Nov-23 13:21N 35°49' W 006°10'2 4.7
2017-Nov-23 13:00N 35°51' W 006°09'0 0.5
2017-Nov-23 12:31N 35°51' W 006°09'0 0.6
2017-Nov-23 12:00N 35°50' W 006°09'0 0.7
2017-Nov-23 11:30N 35°50' W 006°09'0 0.8
2017-Nov-23 10:58N 35°50' W 006°09'0 1.0
2017-Nov-23 10:30N 35°49' W 006°10'0 0.9
2017-Nov-23 10:00N 35°49' W 006°10'7 5.1
2017-Nov-23 08:37N 35°56' W 006°13'314.2
2017-Nov-23 08:23N 35°59' W 006°13'6 0.8
2017-Nov-23 01:28N 36°04' W 006°12'0 0.0
2017-Nov-23 00:58N 36°04' W 006°12'0 0.0
2017-Nov-22 23:16N 36°04' W 006°12'0 0.0
2017-Nov-22 22:55N 36°04' W 006°12'  
2017-Nov-19 12:14N 27°55' W 013°35'  

Dump ship's entire track history